createdAt,value
2022-12-05T00:00:02.740Z,7.33
2022-12-05T00:02:33.242Z,7.10
2022-12-05T00:05:02.255Z,6.33
2022-12-05T00:07:31.454Z,6.03
2022-12-05T00:10:00.667Z,7.73
2022-12-05T00:12:29.810Z,4.63
2022-12-05T00:14:58.936Z,6.07
2022-12-05T00:17:28.128Z,5.50
2022-12-05T00:19:58.859Z,8.33
2022-12-05T00:22:28.158Z,8.40
2022-12-05T00:24:57.275Z,6.57
2022-12-05T00:27:26.505Z,7.60
2022-12-05T00:29:56.017Z,8.20
2022-12-05T00:32:25.417Z,7.47
2022-12-05T00:34:54.574Z,5.87
2022-12-05T00:37:25.293Z,6.87
2022-12-05T00:39:54.525Z,8.13
2022-12-05T00:42:23.790Z,6.17
2022-12-05T00:44:52.835Z,8.07
2022-12-05T00:47:21.899Z,7.37
2022-12-05T00:49:50.949Z,5.30
2022-12-05T00:52:19.998Z,7.13
2022-12-05T00:54:50.404Z,4.47
2022-12-05T00:57:19.470Z,5.80
2022-12-05T00:59:48.656Z,7.00
2022-12-05T01:02:17.823Z,6.27
2022-12-05T01:04:46.868Z,7.00
2022-12-05T01:07:15.938Z,4.30
2022-12-05T01:09:45.005Z,7.23
2022-12-05T01:12:15.502Z,7.03
2022-12-05T01:14:44.630Z,5.30
2022-12-05T01:17:13.731Z,6.67
2022-12-05T01:19:42.901Z,7.20
2022-12-05T01:22:11.928Z,8.07
2022-12-05T01:24:41.021Z,8.23
2022-12-05T01:27:10.065Z,7.23
2022-12-05T01:29:40.543Z,7.97
2022-12-05T01:32:09.613Z,6.80
2022-12-05T01:34:38.645Z,5.13
2022-12-05T01:37:07.654Z,6.17
2022-12-05T01:39:36.607Z,6.73
2022-12-05T01:42:07.121Z,7.57
2022-12-05T01:44:55.060Z,7.10
2022-12-05T01:47:26.560Z,5.83
2022-12-05T01:49:56.157Z,8.20
2022-12-05T01:52:27.540Z,8.30
2022-12-05T01:54:59.133Z,6.50
2022-12-05T01:57:28.663Z,6.80
2022-12-05T02:00:07.431Z,7.40
2022-12-05T02:02:38.005Z,7.87
2022-12-05T02:05:08.312Z,7.03
2022-12-05T02:07:38.476Z,6.90
2022-12-05T02:10:08.668Z,7.50
2022-12-05T02:12:39.179Z,6.83
2022-12-05T02:15:14.355Z,6.13
2022-12-05T02:17:49.681Z,5.87
2022-12-05T02:20:26.114Z,7.87
2022-12-05T02:23:13.071Z,7.93
2022-12-05T02:25:52.739Z,6.30
2022-12-05T02:28:34.557Z,7.47
2022-12-05T02:31:08.778Z,9.40
2022-12-05T02:33:40.245Z,8.00
2022-12-05T02:36:11.354Z,8.03
2022-12-05T02:38:42.029Z,9.13
2022-12-05T02:41:17.583Z,5.90
2022-12-05T02:43:48.228Z,4.77
2022-12-05T02:46:21.793Z,5.40
2022-12-05T02:48:52.239Z,6.93
2022-12-05T02:51:22.561Z,6.50
2022-12-05T02:53:52.778Z,7.83
2022-12-05T02:56:21.880Z,6.40
2022-12-05T02:58:53.251Z,7.73
2022-12-05T03:01:25.821Z,6.30
2022-12-05T03:03:55.157Z,8.83
2022-12-05T03:06:26.162Z,5.50
2022-12-05T03:08:58.268Z,6.50
2022-12-05T03:11:27.769Z,7.20
2022-12-05T03:13:58.346Z,6.27
2022-12-05T03:16:34.181Z,5.47
2022-12-05T03:19:05.068Z,5.33
2022-12-05T03:21:38.309Z,6.20
2022-12-05T03:24:08.927Z,6.13
2022-12-05T03:26:44.358Z,6.10
2022-12-05T03:29:23.570Z,6.27
2022-12-05T03:32:03.801Z,10.77
2022-12-05T03:34:41.313Z,12.33
2022-12-05T03:37:15.196Z,4.90
2022-12-05T03:39:49.336Z,4.60
2022-12-05T03:42:22.099Z,7.00
2022-12-05T03:44:55.990Z,5.13
2022-12-05T03:47:30.428Z,5.53
2022-12-05T03:50:04.134Z,6.17
2022-12-05T03:52:56.895Z,5.60
2022-12-05T03:55:26.765Z,8.00
2022-12-05T03:57:59.303Z,6.53
2022-12-05T04:00:31.226Z,5.87
2022-12-05T04:03:08.373Z,6.90
2022-12-05T04:05:44.212Z,8.70
2022-12-05T04:08:15.728Z,7.20
2022-12-05T04:10:50.661Z,7.57
2022-12-05T04:13:22.144Z,7.83
2022-12-05T04:16:12.227Z,5.80
2022-12-05T04:18:47.789Z,5.03
2022-12-05T04:21:35.012Z,5.60
2022-12-05T04:24:19.481Z,7.37
2022-12-05T04:26:51.747Z,5.47
2022-12-05T04:29:28.204Z,5.77
2022-12-05T04:32:02.046Z,7.17
2022-12-05T04:34:33.351Z,7.20
2022-12-05T04:37:06.056Z,6.10
2022-12-05T04:39:40.946Z,5.70
2022-12-05T04:42:11.822Z,6.17
2022-12-05T04:44:44.713Z,7.20
2022-12-05T04:47:15.767Z,4.83
2022-12-05T04:49:50.638Z,5.40
2022-12-05T04:52:22.451Z,6.63
2022-12-05T04:54:53.214Z,7.17
2022-12-05T04:57:24.390Z,5.83
2022-12-05T04:59:53.360Z,7.30
2022-12-05T05:02:26.927Z,5.30
2022-12-05T05:04:58.520Z,5.90
2022-12-05T05:07:27.314Z,5.60
2022-12-05T05:09:56.469Z,5.37
2022-12-05T05:12:24.616Z,5.20
2022-12-05T05:14:52.598Z,7.10
2022-12-05T05:17:20.581Z,7.90
2022-12-05T05:19:48.657Z,6.33
2022-12-05T05:22:17.931Z,6.20
2022-12-05T05:24:45.897Z,4.77
2022-12-05T05:27:13.891Z,6.00
2022-12-05T05:29:42.085Z,7.33
2022-12-05T05:32:10.033Z,5.50
2022-12-05T05:34:38.188Z,7.53
2022-12-05T05:37:06.158Z,6.35
2022-12-05T05:39:35.551Z,9.33
2022-12-05T05:42:03.569Z,7.03
2022-12-05T05:44:31.514Z,8.53
2022-12-05T05:46:59.990Z,9.33
2022-12-05T05:49:28.030Z,7.90
2022-12-05T05:51:56.472Z,10.23
2022-12-05T05:54:24.781Z,8.43
2022-12-05T05:56:54.559Z,8.53
2022-12-05T05:59:22.540Z,8.63
2022-12-05T06:01:50.553Z,7.93
2022-12-05T06:04:18.535Z,8.40
2022-12-05T06:06:46.618Z,6.40
2022-12-05T06:09:14.665Z,8.97
2022-12-05T06:11:42.660Z,8.60
2022-12-05T06:14:12.012Z,6.90
2022-12-05T06:16:40.303Z,5.07
2022-12-05T06:19:08.390Z,7.90
2022-12-05T06:21:36.325Z,6.53
2022-12-05T06:24:04.505Z,6.93
2022-12-05T06:26:32.542Z,6.33
2022-12-05T06:29:00.504Z,7.20
2022-12-05T06:31:31.770Z,7.40
2022-12-05T06:34:02.652Z,8.33
2022-12-05T06:36:31.217Z,6.80
2022-12-05T06:38:59.625Z,6.67
2022-12-05T06:41:28.548Z,4.87
2022-12-05T06:44:01.856Z,5.37
2022-12-05T06:46:32.373Z,7.00
2022-12-05T06:49:01.050Z,5.47
2022-12-05T06:51:29.017Z,6.07
2022-12-05T06:53:57.469Z,6.73
2022-12-05T06:56:25.465Z,6.87
2022-12-05T06:58:56.337Z,6.53
2022-12-05T07:01:39.555Z,8.43
2022-12-05T07:04:12.367Z,5.00
2022-12-05T07:06:45.018Z,7.80
2022-12-05T07:09:15.589Z,6.77
2022-12-05T07:11:43.696Z,7.93
2022-12-05T07:14:24.892Z,7.80
2022-12-05T07:16:59.740Z,8.47
2022-12-05T07:19:29.142Z,8.73
2022-12-05T07:21:57.188Z,6.20
2022-12-05T07:24:25.331Z,7.83
2022-12-05T07:26:53.363Z,6.87
2022-12-05T07:29:21.364Z,6.67
2022-12-05T07:31:49.447Z,5.97
2022-12-05T07:34:17.438Z,6.00
2022-12-05T07:36:46.804Z,7.10
2022-12-05T07:39:14.743Z,5.73
2022-12-05T07:41:42.772Z,7.17
2022-12-05T07:44:12.708Z,4.90
2022-12-05T07:46:41.235Z,4.57
2022-12-05T07:49:09.902Z,4.67
2022-12-05T07:51:38.877Z,5.00
2022-12-05T07:54:08.385Z,5.30
2022-12-05T07:56:36.334Z,6.93
2022-12-05T07:59:04.355Z,9.53
2022-12-05T08:01:32.985Z,7.47
2022-12-05T08:04:01.400Z,6.13
2022-12-05T08:06:30.821Z,6.17
2022-12-05T08:08:59.211Z,5.93
2022-12-05T08:11:31.074Z,6.33
2022-12-05T08:13:59.844Z,8.03
2022-12-05T08:16:30.641Z,6.37
2022-12-05T08:19:00.505Z,6.50
2022-12-05T08:21:28.927Z,6.63
2022-12-05T08:23:57.239Z,4.90
2022-12-05T08:26:28.876Z,5.50
2022-12-05T08:28:58.794Z,6.63
2022-12-05T08:31:28.277Z,5.87
2022-12-05T08:33:59.283Z,6.60
2022-12-05T08:36:28.406Z,5.90
2022-12-05T08:38:58.023Z,6.60
2022-12-05T08:41:28.779Z,5.10
2022-12-05T08:44:00.183Z,4.87
2022-12-05T08:46:28.274Z,4.20
2022-12-05T08:48:56.418Z,5.40
2022-12-05T08:51:24.423Z,3.97
2022-12-05T08:53:52.490Z,4.77
2022-12-05T08:56:25.023Z,3.40
2022-12-05T08:58:58.508Z,4.27
2022-12-05T09:01:33.415Z,5.47
2022-12-05T09:04:04.465Z,5.00
2022-12-05T09:06:34.382Z,8.07
2022-12-05T09:09:04.711Z,5.30
2022-12-05T09:11:35.802Z,5.83
2022-12-05T09:14:05.134Z,4.57
2022-12-05T09:16:38.840Z,3.47
2022-12-05T09:19:12.119Z,3.47
2022-12-05T09:21:40.151Z,3.90
2022-12-05T09:24:08.281Z,3.80
2022-12-05T09:26:36.288Z,3.70
2022-12-05T09:29:04.749Z,3.30
2022-12-05T09:31:34.209Z,3.67
2022-12-05T09:34:02.357Z,4.00
2022-12-05T09:36:32.147Z,2.93
2022-12-05T09:39:03.278Z,2.87
2022-12-05T09:42:10.116Z,4.50
2022-12-05T09:45:20.024Z,3.90
2022-12-05T09:47:56.299Z,3.07
2022-12-05T09:50:26.609Z,5.87
2022-12-05T09:53:05.633Z,3.20
2022-12-05T09:55:44.748Z,4.70
2022-12-05T09:58:26.287Z,3.53
2022-12-05T10:01:01.513Z,3.53
2022-12-05T10:03:38.073Z,2.60
2022-12-05T10:06:18.651Z,3.80
2022-12-05T10:09:06.093Z,2.80
2022-12-05T10:11:40.238Z,3.30
2022-12-05T10:14:19.676Z,2.93
2022-12-05T10:16:50.696Z,3.20
2022-12-05T10:19:25.544Z,2.60
2022-12-05T10:21:59.014Z,4.00
2022-12-05T10:24:33.056Z,3.70
2022-12-05T10:27:03.863Z,3.10
2022-12-05T10:29:36.601Z,2.90
2022-12-05T10:32:09.333Z,2.40
2022-12-05T10:34:40.438Z,3.00
2022-12-05T10:37:16.185Z,2.70
2022-12-05T10:39:44.585Z,3.40
2022-12-05T10:42:17.511Z,2.97
2022-12-05T10:44:46.183Z,2.70
2022-12-05T10:47:14.269Z,2.87
2022-12-05T10:49:43.973Z,3.97
2022-12-05T10:52:14.304Z,2.73
2022-12-05T10:54:46.577Z,3.60
2022-12-05T10:57:23.305Z,4.10
2022-12-05T10:59:51.591Z,3.30
2022-12-05T11:02:26.212Z,3.87
2022-12-05T11:04:56.829Z,2.73
2022-12-05T11:07:29.897Z,2.73
2022-12-05T11:09:58.340Z,4.17
2022-12-05T11:12:30.178Z,3.77
2022-12-05T11:15:02.272Z,3.17
2022-12-05T11:17:33.705Z,4.30
2022-12-05T11:20:23.475Z,2.07
2022-12-05T11:22:52.965Z,3.40
2022-12-05T11:25:26.200Z,3.50
2022-12-05T11:27:57.150Z,3.23
2022-12-05T11:30:30.674Z,3.30
2022-12-05T11:33:19.098Z,3.90
2022-12-05T11:35:49.293Z,3.20
2022-12-05T11:38:20.429Z,2.50
2022-12-05T11:40:54.530Z,3.03
2022-12-05T11:43:51.208Z,3.43
2022-12-05T11:46:28.339Z,3.37
2022-12-05T11:49:10.384Z,2.70
2022-12-05T11:51:42.413Z,3.63
2022-12-05T11:55:04.425Z,3.87
2022-12-05T11:57:41.472Z,2.70
2022-12-05T12:00:23.955Z,4.00
2022-12-05T12:03:40.229Z,4.30
2022-12-05T12:06:20.905Z,3.07
2022-12-05T12:09:07.367Z,3.30
2022-12-05T12:11:42.693Z,3.67
2022-12-05T12:14:17.808Z,4.10
2022-12-05T12:16:55.921Z,2.13
2022-12-05T12:19:57.851Z,3.00
2022-12-05T12:22:38.152Z,2.53
2022-12-05T12:25:26.780Z,3.47
2022-12-05T12:28:06.304Z,3.03
2022-12-05T12:30:48.959Z,2.97
2022-12-05T12:33:30.725Z,3.17
2022-12-05T12:36:04.232Z,3.93
2022-12-05T12:38:38.310Z,3.40
2022-12-05T12:41:11.790Z,3.30
2022-12-05T12:43:55.011Z,2.47
2022-12-05T12:46:31.834Z,2.10
2022-12-05T12:49:05.833Z,2.60
2022-12-05T12:51:34.540Z,3.67
2022-12-05T12:54:11.818Z,2.33
2022-12-05T12:56:45.584Z,3.10
2022-12-05T12:59:23.862Z,2.03
2022-12-05T13:01:54.991Z,2.80
2022-12-05T13:04:26.107Z,3.13
2022-12-05T13:06:56.639Z,3.17
2022-12-05T13:09:29.318Z,3.13
2022-12-05T13:12:01.534Z,2.57
2022-12-05T13:14:30.897Z,2.67
2022-12-05T13:17:00.285Z,2.83
2022-12-05T13:19:30.477Z,2.90
2022-12-05T13:21:59.832Z,2.23
2022-12-05T13:24:29.106Z,3.47
2022-12-05T13:27:01.119Z,2.60
2022-12-05T13:29:31.695Z,2.17
2022-12-05T13:32:00.522Z,2.47
2022-12-05T13:34:49.504Z,2.73
2022-12-05T13:37:39.684Z,2.87
2022-12-05T13:40:28.752Z,2.43
2022-12-05T13:43:06.543Z,3.40
2022-12-05T13:45:36.738Z,2.53
2022-12-05T13:48:15.624Z,2.57
2022-12-05T13:50:50.029Z,2.50
2022-12-05T13:53:28.368Z,3.43
2022-12-05T13:55:58.871Z,2.20
2022-12-05T13:58:55.468Z,2.90
2022-12-05T14:01:47.664Z,1.97
2022-12-05T14:04:50.169Z,2.97
2022-12-05T14:07:38.326Z,2.63
2022-12-05T14:10:10.147Z,3.33
2022-12-05T14:12:53.927Z,1.33
2022-12-05T14:15:33.554Z,1.90
2022-12-05T14:18:04.961Z,2.13
2022-12-05T14:20:41.367Z,1.70
2022-12-05T14:23:16.946Z,1.40
2022-12-05T14:25:59.637Z,1.50
2022-12-05T14:28:45.591Z,1.60
2022-12-05T14:31:22.040Z,1.60
2022-12-05T14:34:05.809Z,1.63
2022-12-05T14:36:34.851Z,1.93
2022-12-05T14:39:03.949Z,1.20
2022-12-05T14:41:35.983Z,1.40
2022-12-05T14:44:08.753Z,1.70
2022-12-05T14:46:37.946Z,1.60
2022-12-05T14:49:21.738Z,1.63
2022-12-05T14:51:58.105Z,1.00
2022-12-05T14:54:27.374Z,1.43
2022-12-05T14:57:03.713Z,1.50
2022-12-05T14:59:35.029Z,1.50
2022-12-05T15:02:05.018Z,1.40
2022-12-05T15:04:35.501Z,1.93
2022-12-05T15:07:05.406Z,1.60
2022-12-05T15:09:42.290Z,1.47
2022-12-05T15:12:15.362Z,1.50
2022-12-05T15:14:46.341Z,2.23
2022-12-05T15:17:18.179Z,1.70
2022-12-05T15:19:49.622Z,2.00
2022-12-05T15:22:18.936Z,1.80
2022-12-05T15:24:47.476Z,1.57
2022-12-05T15:27:18.364Z,1.70
2022-12-05T15:29:47.167Z,1.80
2022-12-05T15:32:21.043Z,2.10
2022-12-05T15:34:52.631Z,1.83
2022-12-05T15:37:22.595Z,2.20
2022-12-05T15:39:55.891Z,1.70
2022-12-05T15:42:29.876Z,2.07
2022-12-05T15:45:14.491Z,2.00
2022-12-05T15:47:43.667Z,1.40
2022-12-05T15:50:14.871Z,2.47
2022-12-05T15:52:45.283Z,1.90
2022-12-05T15:55:16.479Z,2.00
2022-12-05T15:57:47.970Z,2.80
2022-12-05T16:00:18.391Z,2.23
2022-12-05T16:02:48.507Z,1.97
2022-12-05T16:05:21.859Z,2.63
2022-12-05T16:07:51.952Z,2.60
2022-12-05T16:10:24.725Z,3.40
2022-12-05T16:13:03.473Z,3.00
2022-12-05T16:15:32.029Z,3.70
2022-12-05T16:18:01.549Z,4.13
2022-12-05T16:20:31.570Z,2.40
2022-12-05T16:23:01.903Z,2.40
2022-12-05T16:25:30.795Z,6.47
2022-12-05T16:28:16.626Z,7.77
2022-12-05T16:30:55.045Z,2.80
2022-12-05T16:33:23.261Z,2.23
2022-12-05T16:35:51.617Z,4.17
2022-12-05T16:38:22.082Z,3.83
2022-12-05T16:40:56.795Z,2.00
2022-12-05T16:43:43.086Z,2.33
2022-12-05T16:46:44.974Z,2.58
2022-12-05T16:49:24.950Z,2.07
2022-12-05T16:51:57.349Z,3.67
2022-12-05T16:54:25.837Z,3.93
2022-12-05T16:56:53.862Z,1.57
2022-12-05T16:59:26.767Z,1.60
2022-12-05T17:01:54.762Z,2.73
2022-12-05T17:04:22.895Z,2.80
2022-12-05T17:06:50.972Z,2.70
2022-12-05T17:09:18.962Z,3.13
2022-12-05T17:11:48.204Z,3.30
2022-12-05T17:14:18.417Z,2.77
2022-12-05T17:16:47.778Z,2.70
2022-12-05T17:19:16.004Z,2.30
2022-12-05T17:21:44.724Z,2.67
2022-12-05T17:24:17.655Z,2.80
2022-12-05T17:26:47.290Z,2.10
2022-12-05T17:29:15.368Z,2.70
2022-12-05T17:31:43.477Z,3.50
2022-12-05T17:34:17.756Z,4.00
2022-12-05T17:36:46.159Z,5.20
2022-12-05T17:39:14.320Z,5.43
2022-12-05T17:41:42.342Z,4.93
2022-12-05T17:44:14.007Z,6.40
2022-12-05T17:46:43.351Z,4.60
2022-12-05T17:49:16.738Z,2.60
2022-12-05T17:52:13.336Z,1.97
2022-12-05T17:54:33.437Z,2.33
2022-12-05T17:57:01.417Z,2.27
2022-12-05T17:59:29.364Z,4.40
2022-12-05T18:01:57.354Z,4.93
2022-12-05T18:04:26.719Z,11.70
2022-12-05T18:06:54.723Z,16.80
2022-12-05T18:09:24.007Z,14.10
2022-12-05T18:11:51.958Z,9.10
2022-12-05T18:14:19.981Z,3.60
2022-12-05T18:16:48.025Z,2.73
2022-12-05T18:19:16.181Z,2.87
2022-12-05T18:24:14.580Z,2.10
2022-12-05T18:26:44.129Z,1.90
2022-12-05T18:29:12.138Z,1.80
2022-12-05T18:31:41.604Z,1.40
2022-12-05T18:34:09.714Z,1.57
2022-12-05T18:36:37.665Z,1.50
2022-12-05T18:39:07.101Z,2.30
2022-12-05T18:41:35.118Z,2.40
2022-12-05T18:44:03.168Z,1.90
2022-12-05T18:46:31.493Z,2.23
2022-12-05T18:49:03.333Z,1.70
2022-12-05T18:51:32.013Z,1.90
2022-12-05T18:54:00.057Z,3.57
2022-12-05T18:56:31.245Z,3.23
2022-12-05T18:59:02.453Z,5.47
2022-12-05T19:01:31.967Z,2.23
2022-12-05T19:04:02.003Z,2.70
2022-12-05T19:06:32.054Z,2.50
2022-12-05T19:09:01.941Z,3.90
2022-12-05T19:11:31.346Z,5.10
2022-12-05T19:14:01.203Z,6.83
2022-12-05T19:16:31.315Z,4.33
2022-12-05T19:19:00.631Z,2.67
2022-12-05T19:21:30.746Z,1.80
2022-12-05T19:23:59.564Z,2.37
2022-12-05T19:26:27.958Z,1.70
2022-12-05T19:28:57.888Z,2.87
2022-12-05T19:31:27.548Z,2.27
2022-12-05T19:33:57.394Z,2.47
2022-12-05T19:36:28.289Z,1.80
2022-12-05T19:38:57.430Z,2.37
2022-12-05T19:41:27.263Z,2.50
2022-12-05T19:43:59.578Z,1.97
2022-12-05T19:46:30.322Z,2.80
2022-12-05T19:49:00.265Z,2.87
2022-12-05T19:51:28.462Z,2.67
2022-12-05T19:53:56.592Z,3.50
2022-12-05T19:56:26.439Z,2.80
2022-12-05T19:58:58.596Z,2.77
2022-12-05T20:01:28.210Z,4.83
2022-12-05T20:03:58.788Z,5.80
2022-12-05T20:06:27.331Z,8.30
2022-12-05T20:08:55.291Z,7.63
2022-12-05T20:11:25.768Z,9.23
2022-12-05T20:13:55.248Z,7.73
2022-12-05T20:16:27.012Z,8.57
2022-12-05T20:18:57.956Z,8.60
2022-12-05T20:21:27.477Z,7.90
2022-12-05T20:23:56.200Z,8.03
2022-12-05T20:26:25.879Z,3.37
2022-12-05T20:28:56.460Z,3.10
2022-12-05T20:31:27.342Z,3.00
2022-12-05T20:33:56.355Z,2.43
2022-12-05T20:36:26.796Z,3.23
2022-12-05T20:38:59.075Z,3.67
2022-12-05T20:41:27.600Z,2.87
2022-12-05T20:43:57.283Z,2.87
2022-12-05T20:46:27.789Z,3.13
2022-12-05T20:48:56.395Z,4.20
2022-12-05T20:53:52.704Z,5.60
2022-12-05T20:56:25.243Z,3.87
2022-12-05T20:58:55.803Z,5.43
2022-12-05T21:01:25.509Z,4.33
2022-12-05T21:03:55.932Z,4.23
2022-12-05T21:06:25.360Z,4.40
2022-12-05T21:08:54.366Z,2.73
2022-12-05T21:11:26.162Z,2.00
2022-12-05T21:13:56.629Z,3.30
2022-12-05T21:16:25.325Z,3.47
2022-12-05T21:18:56.059Z,2.20
2022-12-05T21:21:26.714Z,3.50
2022-12-05T21:23:56.719Z,3.13
2022-12-05T21:26:26.701Z,4.60
2022-12-05T21:28:55.535Z,3.30
2022-12-05T21:31:25.489Z,2.83
2022-12-05T21:33:57.552Z,3.37
2022-12-05T21:36:28.039Z,2.77
2022-12-05T21:38:56.830Z,2.80
2022-12-05T21:41:25.395Z,2.93
2022-12-05T21:43:55.298Z,3.00
2022-12-05T21:46:24.187Z,2.73
2022-12-05T21:48:52.459Z,4.20
2022-12-05T21:51:22.720Z,5.20
2022-12-05T21:53:51.104Z,5.20
2022-12-05T21:56:22.762Z,5.77
2022-12-05T21:58:51.420Z,2.47
2022-12-05T22:01:21.018Z,3.33
2022-12-05T22:03:51.508Z,3.80
2022-12-05T22:06:20.962Z,3.53
2022-12-05T22:08:49.093Z,4.40
2022-12-05T22:11:19.140Z,3.50
2022-12-05T22:13:48.796Z,3.10
2022-12-05T22:16:17.547Z,2.73
2022-12-05T22:18:46.371Z,2.93
2022-12-05T22:21:15.709Z,3.83
2022-12-05T22:23:45.455Z,3.67
2022-12-05T22:26:15.311Z,3.80
2022-12-05T22:28:43.443Z,4.37
2022-12-05T22:31:13.716Z,5.03
2022-12-05T22:33:42.260Z,3.60
2022-12-05T22:36:11.780Z,4.30
2022-12-05T22:38:41.366Z,5.80
2022-12-05T22:41:14.219Z,4.30
2022-12-05T22:43:43.619Z,3.37
2022-12-05T22:46:14.032Z,4.23
2022-12-05T22:48:42.563Z,2.07
2022-12-05T22:51:10.772Z,3.20
2022-12-05T22:53:38.786Z,4.70
2022-12-05T22:56:09.187Z,3.70
2022-12-05T22:58:39.173Z,5.90
2022-12-05T23:01:12.197Z,4.10
2022-12-05T23:03:41.470Z,5.30
2022-12-05T23:06:12.057Z,4.17
2022-12-05T23:08:41.409Z,3.20
2022-12-05T23:11:10.315Z,4.43
2022-12-05T23:13:40.461Z,4.30
2022-12-05T23:16:10.641Z,5.80
2022-12-05T23:18:47.554Z,5.20
2022-12-05T23:21:17.817Z,4.43
2022-12-05T23:23:46.065Z,4.40
2022-12-05T23:26:14.431Z,3.13
2022-12-05T23:28:44.912Z,3.53
2022-12-05T23:31:14.326Z,2.90
2022-12-05T23:33:42.606Z,2.87
2022-12-05T23:36:11.424Z,3.10
2022-12-05T23:38:41.053Z,3.53
2022-12-05T23:41:12.324Z,3.63
2022-12-05T23:43:40.448Z,4.60
2022-12-05T23:46:10.534Z,3.80
2022-12-05T23:48:39.248Z,5.10
2022-12-05T23:51:09.903Z,3.37
2022-12-05T23:53:40.696Z,4.17
2022-12-05T23:56:10.678Z,4.00
2022-12-05T23:58:39.461Z,4.40
